PAV weather

CLOSED Pavlovich Aviation Airport
Hermosillo, Sonora, Mexico

Public forecast

Using degrees Celsius for public forecast. Weather courtesy of forecast.io.

METAR (pilot weather report)

Closest report is General Ignacio P. Garcia International Airport, 5.9 nm (10.9 km) N. Retrieved 2019/05/19 22:40 UTC (0 seconds ago):

MMHO 192240Z 21013KT 10SM FEW090 33/02 A2979 RMK 8/030 ISOL CI HZY

TAF (pilot weather forecast)

Closest forecast is General Ignacio P. Garcia International Airport, 5.9 nm (10.9 km) N. Retrieved 2019/05/19 18:03 UTC (5 hours ago):

TAF MMHO 191602Z 1918/2018 23006KT P6SM BKN220 BECMG 1920/1921 23015KT FM200200 25006KT P6SM BKN220 BECMG 2005/2006 00000KT FM201200 28005KT P6SM SCT030 BKN220